• Join FlightAware (Why Join?)
  • Login
  • US Flag 
11:30AM EDT


 

Airport Tracker/Info


-or-


 

Live Flight TrackerFlight Track Log ✈ SWA1275 ✈ 25-Jul-2013 ✈ KMHT - KBWI

Flight Track Log - Related Links

Times and Time Zones

All times are in EDT time to prevent confusion due to time zone crossing. See the SWA1275 flight status page for this flight to view local times or setup timezone preferences in your user account.

Time Position Orientation Groundspeed Altitude Reporting Facility
EDT Latitude Longitude Course Direction KTS MPH feet Rate Location/Type
07:33AM 42.9620 -71.4180 21° North 173 199 2,000  Level FlightAware
07:34AM 42.9880 -71.4040 21° North 221 254 3,000 1,920 Climbing FlightAware
07:34AM 42.9980 -71.3980 24° Northeast 229 264 3,300 2,400 Climbing FlightAware
07:35AM 43.0210 -71.3590 51° Northeast 267 307 4,700 2,880 Climbing FlightAware
07:35AM 43.0300 -71.3110 76° East 287 330 6,200 3,360 Climbing FlightAware
07:35AM 43.0380 -71.2550 79° East 304 350 8,000 3,780 Climbing FlightAware
07:36AM 43.0460 -71.2030 78° East 310 357 9,900 3,000 Climbing FlightAware
07:37AM 43.0590 -71.1210 78° East 359 413 11,400 2,100 Climbing FlightAware
07:37AM 43.0750 -71.0350 76° East 380 437 12,700 2,520 Climbing FlightAware
07:38AM 43.0650 -70.9730 102° East 378 435 14,200 3,300 Climbing FlightAware
07:38AM 43.0140 -70.9080 137° Southeast 370 426 16,500 3,180 Climbing FlightAware
07:39AM 42.9740 -70.8930 165° South 367 422 17,700 2,700 Climbing FlightAware
07:39AM 42.9110 -70.9160 195° South 377 434 19,300 2,640 Climbing FlightAware
07:40AM 42.8420 -70.9500 200° South 388 447 21,200 2,880 Climbing FlightAware
07:41AM 42.7680 -70.9870 200° South 385 443 23,500 2,820 Climbing FlightAware
07:42AM 42.6940 -71.0220 199° South 385 443 25,400 2,460 Climbing FlightAware
07:42AM 42.6360 -71.0510 200° South 390 449 26,700 2,040 Climbing FlightAware
07:43AM 42.5720 -71.0820 200° South 391 450 27,900 900 Climbing FlightAware
07:44AM 42.4930 -71.1200 200° South 392 451 28,000 60 Climbing FlightAware
07:44AM 42.4270 -71.1610 205° Southwest 389 448 28,000  Level FlightAware
07:44AM 42.4080 -71.1900 228° Southwest 392 451 28,000  Level FlightAware
07:45AM 42.3770 -71.2910 247° West 397 457 28,000  Level FlightAware
07:46AM 42.3490 -71.3820 247° West 402 463 28,000  Level FlightAware
07:47AM 42.3180 -71.4840 248° West 404 465 28,000 480 Level FlightAware
07:47AM 42.2920 -71.5680 247° West 403 464 28,700 1,920 Climbing FlightAware
07:48AM 42.2630 -71.6620 247° West 388 447 30,500 2,340 Climbing FlightAware
07:49AM 42.2350 -71.7530 247° West 381 438 32,000 2,160 Climbing FlightAware
07:49AM 42.2020 -71.8610 248° West 366 421 33,900 1,140 Climbing FlightAware
07:50AM 42.1670 -71.9720 247° West 363 418 34,000 60 Climbing FlightAware
07:51AM 42.1340 -72.0490 240° Southwest 361 415 34,000  Level FlightAware
07:52AM 42.0870 -72.1340 233° Southwest 362 417 34,000  Level FlightAware
07:52AM 42.0540 -72.1960 234° Southwest 363 418 34,000  Level FlightAware
07:53AM 41.9950 -72.3040 234° Southwest 360 414 34,000  Level FlightAware
07:54AM 41.9510 -72.3830 233° Southwest 362 417 34,000  Level FlightAware
07:55AM 41.9040 -72.4710 234° Southwest 363 418 34,000  Level FlightAware
07:56AM 41.8490 -72.5690 233° Southwest 363 418 34,000  Level FlightAware
07:57AM 41.8080 -72.6450 234° Southwest 363 418 34,000  Level FlightAware
07:57AM 41.7560 -72.7370 233° Southwest 363 418 34,000  Level FlightAware
07:59AM 41.6640 -72.9010 233° Southwest 34,000  Level FlightAware
08:00AM 41.6010 -73.0140 233° Southwest 371 427 34,000  Level FlightAware
08:00AM 41.5590 -73.0890 233° Southwest 372 428 34,000  Level FlightAware
08:01AM 41.5150 -73.1670 233° Southwest 375 432 34,000  Level FlightAware
08:02AM 41.4570 -73.2690 233° Southwest 377 434 34,000  Level FlightAware
08:03AM 41.4160 -73.3420 233° Southwest 380 437 34,000  Level FlightAware
08:04AM 41.3670 -73.4300 233° Southwest 379 436 34,000  Level FlightAware
08:04AM 41.3230 -73.5070 233° Southwest 378 435 34,000  Level FlightAware
08:05AM 41.2780 -73.5850 233° Southwest 379 436 34,000  Level FlightAware
08:06AM 41.2340 -73.6590 232° Southwest 378 435 34,000  Level FlightAware
08:06AM 41.1910 -73.7320 232° Southwest 378 435 34,000  Level FlightAware
08:07AM 41.1420 -73.8140 232° Southwest 378 435 34,000  Level FlightAware
08:08AM 41.0960 -73.8930 232° Southwest 380 437 34,000  Level FlightAware
08:08AM 41.0510 -73.9680 232° Southwest 380 437 34,000  Level FlightAware
08:09AM 41.0090 -74.0380 232° Southwest 381 438 34,000 -420 Level FlightAware
08:10AM 40.9610 -74.1170 231° Southwest 373 429 33,500 -1,380 Descending FlightAware
08:10AM 40.9250 -74.1780 232° Southwest 365 420 32,300 -2,100 Descending FlightAware
08:11AM 40.8820 -74.2500 232° Southwest 357 411 30,900 -2,100 Descending FlightAware
08:12AM 40.8390 -74.3210 231° Southwest 350 403 29,400 -2,040 Descending FlightAware
08:12AM 40.8010 -74.3830 231° Southwest 345 397 28,200 -1,080 Descending FlightAware
08:13AM 40.7600 -74.4500 231° Southwest 353 406 28,000 -180 Descending FlightAware
08:14AM 40.7180 -74.5200 232° Southwest 369 425 28,000  Level FlightAware
08:14AM 40.6700 -74.5990 231° Southwest 369 425 28,000  Level FlightAware
08:15AM 40.6400 -74.6480 231° Southwest 369 425 28,000  Level FlightAware
08:16AM 40.5970 -74.7180 231° Southwest 370 426 28,000  Level FlightAware
08:16AM 40.5680 -74.7630 230° Southwest 370 426 28,000  Level FlightAware
08:17AM 40.5160 -74.8370 227° Southwest 372 428 28,000 -240 Level FlightAware
08:18AM 40.4650 -74.9090 227° Southwest 358 412 27,700 -1,080 Descending FlightAware
08:18AM 40.4200 -74.9720 227° Southwest 342 394 26,500 -1,860 Descending FlightAware
08:19AM 40.3770 -75.0330 227° Southwest 336 387 25,200 -1,980 Descending FlightAware
08:20AM 40.3310 -75.0970 227° Southwest 328 377 23,800 -1,920 Descending FlightAware
08:20AM 40.2850 -75.1610 227° Southwest 323 372 22,400 -1,860 Descending FlightAware
08:21AM 40.2440 -75.2190 227° Southwest 319 367 21,200 -1,800 Descending FlightAware
08:22AM 40.2080 -75.2690 227° Southwest 313 360 20,100 -1,860 Descending FlightAware
08:22AM 40.1590 -75.3370 227° Southwest 307 353 18,600 -1,440 Descending FlightAware
08:23AM 40.1210 -75.3900 227° Southwest 321 369 18,000 -480 Descending FlightAware
08:24AM 40.0790 -75.4490 227° Southwest 337 388 18,000  Level FlightAware
08:24AM 40.0370 -75.5070 227° Southwest 336 387 18,000  Level FlightAware
08:25AM 39.9950 -75.5640 226° Southwest 337 388 18,000 -420 Level FlightAware
08:26AM 39.9590 -75.6140 227° Southwest 321 369 17,500 -960 Descending FlightAware
08:26AM 39.9170 -75.6740 228° Southwest 319 367 16,800 -1,080 Descending FlightAware
08:27AM 39.8790 -75.7460 235° Southwest 323 372 16,000 -1,020 Descending FlightAware
08:28AM 39.8470 -75.8070 236° Southwest 319 367 15,400 -1,020 Descending FlightAware
08:28AM 39.8110 -75.8760 236° Southwest 319 367 14,700 -1,080 Descending FlightAware
08:29AM 39.7750 -75.9460 236° Southwest 318 366 13,900 -1,020 Descending FlightAware
08:30AM 39.7320 -76.0270 235° Southwest 316 364 13,100 -1,020 Descending FlightAware
08:31AM 39.6790 -76.1280 236° Southwest 293 337 11,900 -780 Descending FlightAware
08:32AM 39.6480 -76.1860 235° Southwest 293 337 11,800 -600 Descending FlightAware
08:33AM 39.6170 -76.2440 235° Southwest 292 336 11,100 -1,140 Descending FlightAware
08:33AM 39.5830 -76.3030 233° Southwest 289 333 10,300 -1,140 Descending FlightAware
08:34AM 39.5510 -76.3320 215° Southwest 281 323 9,800 -1,020 Descending FlightAware
08:34AM 39.5240 -76.3560 214° Southwest 278 320 9,400 -1,140 Descending FlightAware
08:35AM 39.4960 -76.3800 213° Southwest 274 315 8,800 -1,440 Descending FlightAware
08:35AM 39.4610 -76.4100 213° Southwest 274 315 8,000 -1,680 Descending FlightAware
08:36AM 39.4360 -76.4330 215° Southwest 273 314 7,300 -1,920 Descending FlightAware
08:36AM 39.3860 -76.4370 184° South 282 325 5,900 -2,100 Descending FlightAware
08:36AM 39.3650 -76.4300 166° South 279 321 5,400 -1,620 Descending FlightAware
08:37AM 39.3330 -76.4200 166° South 265 305 4,800 -1,320 Descending FlightAware
08:37AM 39.2940 -76.4110 170° South 263 303 4,100 -1,440 Descending FlightAware
08:38AM 39.2800 -76.4100 177° South 260 299 3,800 -1,380 Descending FlightAware
08:38AM 39.2470 -76.4090 179° South 257 296 3,200 -900 Descending FlightAware
08:39AM 39.2210 -76.4090 180° South 255 293 3,000 -180 Descending FlightAware
08:40AM 39.1380 -76.4180 185° South 227 261 2,900 -360 Descending FlightAware
08:44AM 39.1200 -76.6210 264° West 141 162 1,200 -360 Descending FlightAware
08:45AM 39.1310 -76.6330 320° Northwest 141 162 1,200  Level FlightAware